Time;durP1;ratioP1;P1;durP2;ratioP2;P2;SDS_P1;SDS_P2;PMS_P1;PMS_P2;Temp;Humidity;BMP_temperature;BMP_pressure;BME280_temperature;BME280_humidity;BME280_pressure;Samples;Min_cycle;Max_cycle;Signal;HPM_P1;HPM_P2
2023/08/13 00:01:12;;;;;;;5.77;5.27;;;;;;;15.42;100.00;98044.00;6216177;28;20247;-51
2023/08/13 00:04:14;;;;;;;6.27;5.67;;;;;;;15.43;100.00;98042.91;6231298;28;20303;-51
2023/08/13 00:07:16;;;;;;;5.97;5.40;;;;;;;15.45;100.00;98044.25;6233025;28;20643;-53
2023/08/13 00:10:19;;;;;;;6.13;5.63;;;;;;;15.50;100.00;98054.19;6232013;28;20385;-51
2023/08/13 00:13:21;;;;;;;6.20;5.70;;;;;;;15.55;100.00;98061.47;6233422;28;20326;-53
2023/08/13 00:16:23;;;;;;;6.30;5.50;;;;;;;15.57;100.00;98054.78;6233089;28;20228;-52
2023/08/13 00:19:25;;;;;;;7.97;6.00;;;;;;;15.61;100.00;98055.03;6231463;28;20281;-51
2023/08/13 00:22:29;;;;;;;7.43;5.33;;;;;;;15.56;100.00;98042.41;6232734;28;20607;-53
2023/08/13 00:25:31;;;;;;;6.13;5.63;;;;;;;15.66;100.00;98060.44;6232573;28;20326;-53
2023/08/13 00:28:33;;;;;;;5.73;5.27;;;;;;;15.65;100.00;98058.84;6231408;28;20243;-52
2023/08/13 00:31:36;;;;;;;6.27;5.67;;;;;;;15.65;100.00;98061.53;6233150;28;20258;-51
2023/08/13 00:34:38;;;;;;;5.77;5.17;;;;;;;15.67;100.00;98064.78;6232181;28;20806;-52
2023/08/13 00:37:40;;;;;;;6.13;5.60;;;;;;;15.67;100.00;98062.09;6224340;28;20240;-52
2023/08/13 00:40:43;;;;;;;5.83;5.33;;;;;;;15.66;100.00;98065.81;6215318;28;20232;-52
2023/08/13 00:43:45;;;;;;;6.43;5.43;;;;;;;15.71;100.00;98065.81;6222241;28;20232;-50
2023/08/13 00:46:48;;;;;;;6.70;6.10;;;;;;;15.73;100.00;98077.13;6214618;28;20736;-51
2023/08/13 00:49:51;;;;;;;5.83;5.33;;;;;;;15.74;100.00;98073.38;6231230;28;20732;-53
2023/08/13 00:52:54;;;;;;;6.00;5.50;;;;;;;15.75;100.00;98074.97;6213635;28;20235;-54
2023/08/13 00:55:58;;;;;;;6.50;5.40;;;;;;;15.78;100.00;98076.34;6223638;28;20235;-54
2023/08/13 00:59:01;;;;;;;6.80;6.20;;;;;;;15.80;100.00;98077.66;6232166;28;20838;-53
2023/08/13 01:02:03;;;;;;;5.73;5.03;;;;;;;15.82;100.00;98075.53;6231882;28;20287;-52
2023/08/13 01:05:05;;;;;;;5.60;5.20;;;;;;;15.84;100.00;98073.38;6232788;28;20274;-52
2023/08/13 01:08:35;;;;;;;5.27;4.87;;;;;;;15.87;100.00;98066.69;6231788;28;20227;-50
2023/08/13 01:11:55;;;;;;;5.90;5.30;;;;;;;15.91;100.00;98070.44;6230150;28;20315;-51
2023/08/13 01:15:33;;;;;;;5.73;5.33;;;;;;;15.92;100.00;98064.00;6230895;28;20264;-53
2023/08/13 01:18:39;;;;;;;5.80;5.30;;;;;;;15.93;100.00;98066.41;6123895;28;20230;-53
2023/08/13 01:21:42;;;;;;;7.17;5.37;;;;;;;15.96;100.00;98068.59;6120897;28;20250;-49
2023/08/13 01:24:44;;;;;;;5.30;4.90;;;;;;;15.98;100.00;98061.06;6120331;29;20246;-51
2023/08/13 01:27:50;;;;;;;5.87;5.27;;;;;;;16.01;100.00;98065.09;6118076;29;20409;-52
2023/08/13 01:31:02;;;;;;;6.10;5.50;;;;;;;16.03;100.00;98068.31;6123578;28;20316;-53
2023/08/13 01:34:06;;;;;;;6.00;5.50;;;;;;;16.04;100.00;98061.84;6121467;29;20540;-53
2023/08/13 01:37:09;;;;;;;5.70;5.30;;;;;;;15.99;100.00;98051.91;6119940;29;20258;-50
2023/08/13 01:40:12;;;;;;;7.03;6.23;;;;;;;15.98;100.00;98049.50;6105538;29;20700;-51
2023/08/13 01:43:14;;;;;;;6.00;5.50;;;;;;;16.09;100.00;98066.44;6105127;29;20325;-51
2023/08/13 01:46:16;;;;;;;5.97;5.47;;;;;;;16.09;100.00;98053.81;6120032;28;20306;-51
2023/08/13 01:49:19;;;;;;;5.63;5.17;;;;;;;16.10;100.00;98060.78;6122630;28;20231;-51
2023/08/13 01:52:21;;;;;;;6.90;5.60;;;;;;;16.09;100.00;98064.56;6119929;29;20234;-52
2023/08/13 01:55:24;;;;;;;5.83;5.33;;;;;;;16.09;100.00;98059.19;6227812;28;20242;-54
2023/08/13 01:58:27;;;;;;;6.50;5.17;;;;;;;16.07;100.00;98061.34;6204740;28;20236;-51
2023/08/13 02:01:29;;;;;;;5.77;5.13;;;;;;;15.98;100.00;98053.00;6229710;28;20597;-53
2023/08/13 02:04:32;;;;;;;5.60;5.10;;;;;;;16.03;100.00;98067.50;6228441;28;20242;-51
2023/08/13 02:07:34;;;;;;;7.17;5.23;;;;;;;15.98;100.00;98058.38;6228496;28;20297;-51
2023/08/13 02:10:37;;;;;;;6.20;5.43;;;;;;;15.94;100.00;98059.97;6229587;28;20716;-57
2023/08/13 02:13:39;;;;;;;6.27;5.67;;;;;;;15.91;100.00;98059.69;6228668;28;20243;-51
2023/08/13 02:16:41;;;;;;;6.63;5.40;;;;;;;15.85;100.00;98060.75;6212545;28;20244;-53
2023/08/13 02:19:44;;;;;;;6.40;5.90;;;;;;;15.81;100.00;98059.66;6224748;28;20267;-51
2023/08/13 02:22:46;;;;;;;5.87;5.37;;;;;;;15.76;100.00;98059.66;6213349;28;20231;-51
2023/08/13 02:25:49;;;;;;;5.13;4.73;;;;;;;15.76;100.00;98073.91;6229712;28;20331;-52
2023/08/13 02:28:51;;;;;;;5.07;4.63;;;;;;;15.74;100.00;98066.13;6225499;28;20266;-53
2023/08/13 02:31:54;;;;;;;4.50;4.10;;;;;;;15.73;100.00;98066.38;6228408;28;20239;-52
2023/08/13 02:34:56;;;;;;;6.73;5.13;;;;;;;15.71;100.00;98072.03;6228637;28;20267;-53
2023/08/13 02:37:59;;;;;;;5.67;5.00;;;;;;;15.66;100.00;98065.81;6212237;28;20241;-53
2023/08/13 02:41:02;;;;;;;6.33;5.83;;;;;;;15.59;100.00;98071.41;6228629;28;20227;-53
2023/08/13 02:44:04;;;;;;;7.40;5.93;;;;;;;15.58;100.00;98077.06;6229833;28;20271;-52
2023/08/13 02:47:07;;;;;;;5.20;4.77;;;;;;;15.57;100.00;98078.94;6190285;28;20274;-52
2023/08/13 02:50:10;;;;;;;5.40;5.00;;;;;;;15.48;100.00;98075.97;6211972;28;20231;-53
2023/08/13 02:53:12;;;;;;;5.10;4.70;;;;;;;15.53;100.00;98082.41;6228282;28;20235;-53
2023/08/13 02:56:15;;;;;;;6.23;5.30;;;;;;;15.49;100.00;98080.25;6225067;28;20264;-52
2023/08/13 02:59:18;;;;;;;5.83;4.70;;;;;;;15.42;100.00;98078.91;6212330;28;20319;-53
2023/08/13 03:02:20;;;;;;;5.97;5.37;;;;;;;15.40;100.00;98083.72;6210899;28;20293;-52
2023/08/13 03:05:22;;;;;;;5.17;4.77;;;;;;;15.24;100.00;98066.75;6227822;28;20215;-51
2023/08/13 03:08:25;;;;;;;6.03;5.30;;;;;;;15.29;100.00;98082.06;6228088;28;20230;-52
2023/08/13 03:11:28;;;;;;;5.20;4.80;;;;;;;15.23;100.00;98083.91;6211762;28;20236;-52
2023/08/13 03:14:31;;;;;;;5.80;5.33;;;;;;;15.18;100.00;98084.69;6210722;28;20607;-51
2023/08/13 03:17:34;;;;;;;5.10;4.67;;;;;;;15.19;100.00;98088.19;6210872;28;20232;-53
2023/08/13 03:20:38;;;;;;;5.73;5.23;;;;;;;15.14;100.00;98088.97;6210867;28;20301;-53
2023/08/13 03:23:40;;;;;;;5.40;4.93;;;;;;;15.12;100.00;98087.59;6218810;28;20236;-51
2023/08/13 03:26:43;;;;;;;6.00;5.37;;;;;;;15.10;100.00;98089.75;6209245;28;20242;-51
2023/08/13 03:29:45;;;;;;;6.10;5.50;;;;;;;15.07;100.00;98088.38;6223016;28;20242;-53
2023/08/13 03:32:48;;;;;;;7.47;4.90;;;;;;;15.01;100.00;98092.09;6209656;28;20235;-53
2023/08/13 03:35:55;;;;;;;5.80;5.30;;;;;;;15.00;100.00;98093.19;6225617;28;20236;-53
2023/08/13 03:38:57;;;;;;;6.27;5.70;;;;;;;15.00;100.00;98095.88;6210193;28;20234;-50
2023/08/13 03:42:00;;;;;;;6.27;5.77;;;;;;;14.97;100.00;98096.38;6233496;28;20238;-53
2023/08/13 03:45:03;;;;;;;6.20;5.60;;;;;;;14.93;100.00;98092.63;6209680;28;20235;-52
2023/08/13 03:48:05;;;;;;;7.23;5.43;;;;;;;14.89;100.00;98091.53;6228197;28;20230;-51
2023/08/13 03:51:08;;;;;;;6.13;5.63;;;;;;;14.92;100.00;98088.31;6226636;28;20220;-49
2023/08/13 03:54:10;;;;;;;7.63;6.20;;;;;;;14.91;100.00;98086.69;6226674;28;20309;-51
2023/08/13 03:57:12;;;;;;;6.63;5.73;;;;;;;14.93;100.00;98090.75;6214571;28;20247;-53
2023/08/13 04:00:16;;;;;;;6.63;6.03;;;;;;;14.94;100.00;98089.66;6226676;28;20302;-52
2023/08/13 04:03:20;;;;;;;6.33;5.73;;;;;;;14.92;100.00;98086.41;6224341;28;20305;-51
2023/08/13 04:06:28;;;;;;;7.00;6.10;;;;;;;14.91;100.00;98087.50;6209595;28;20814;-52
2023/08/13 04:09:31;;;;;;;6.27;5.77;;;;;;;14.94;100.00;98087.00;6222996;28;20243;-51
2023/08/13 04:12:33;;;;;;;6.47;5.97;;;;;;;14.95;100.00;98085.09;6216757;28;20223;-54
2023/08/13 04:15:36;;;;;;;5.83;5.33;;;;;;;14.89;100.00;98084.28;6226182;28;20231;-51
2023/08/13 04:18:38;;;;;;;6.20;5.33;;;;;;;14.99;100.00;98085.41;6211038;28;20299;-53
2023/08/13 04:21:40;;;;;;;6.43;5.67;;;;;;;14.87;100.00;98075.66;6210194;28;20247;-51
2023/08/13 04:24:50;;;;;;;6.27;5.73;;;;;;;14.95;100.00;98091.28;6208725;28;20327;-53
2023/08/13 04:27:55;;;;;;;6.20;5.60;;;;;;;14.94;100.00;98097.72;6209351;28;20224;-53
2023/08/13 04:30:58;;;;;;;6.73;5.67;;;;;;;14.97;100.00;98101.75;6214009;28;20235;-52
2023/08/13 04:34:02;;;;;;;7.03;6.43;;;;;;;14.98;100.00;98098.00;6212932;28;20228;-52
2023/08/13 04:37:05;;;;;;;6.83;6.30;;;;;;;15.03;100.00;98105.28;6214167;28;20743;-52
2023/08/13 04:40:08;;;;;;;6.47;5.97;;;;;;;15.05;100.00;98100.44;6214859;28;20234;-50
2023/08/13 04:43:10;;;;;;;6.90;6.30;;;;;;;15.10;100.00;98103.16;6237463;28;20270;-51
2023/08/13 04:46:14;;;;;;;6.53;5.93;;;;;;;15.11;100.00;98102.09;6212583;28;20231;-52
2023/08/13 04:49:26;;;;;;;6.97;6.27;;;;;;;15.12;100.00;98109.06;6214933;28;20317;-51
2023/08/13 04:52:28;;;;;;;7.03;6.43;;;;;;;15.15;100.00;98109.38;6231579;28;20232;-52
2023/08/13 04:55:32;;;;;;;7.00;6.40;;;;;;;15.09;100.00;98098.88;6213365;28;20238;-53
2023/08/13 04:58:35;;;;;;;6.20;5.70;;;;;;;15.16;100.00;98104.81;6237765;28;20314;-53
2023/08/13 05:01:39;;;;;;;7.30;6.60;;;;;;;15.22;100.00;98106.44;6232530;28;20239;-53
2023/08/13 05:04:41;;;;;;;6.67;6.07;;;;;;;15.29;100.00;98109.72;6223514;28;21123;-53
2023/08/13 05:07:45;;;;;;;6.37;5.77;;;;;;;15.26;100.00;98098.69;6214565;28;20282;-53
2023/08/13 05:10:48;;;;;;;7.20;6.50;;;;;;;15.42;100.00;98119.97;6222948;28;20315;-51
2023/08/13 05:13:51;;;;;;;6.67;6.17;;;;;;;15.49;100.00;98117.84;6212910;28;20267;-50
2023/08/13 05:16:55;;;;;;;7.37;6.70;;;;;;;15.55;100.00;98115.19;6230351;28;20239;-54
2023/08/13 05:19:57;;;;;;;7.73;7.03;;;;;;;15.62;100.00;98119.25;6231116;28;20235;-50
2023/08/13 05:22:59;;;;;;;6.93;6.30;;;;;;;15.71;100.00;98124.91;6230101;28;20231;-50
2023/08/13 05:26:02;;;;;;;6.70;6.20;;;;;;;15.80;100.00;98114.47;6229654;28;20246;-52
2023/08/13 05:29:06;;;;;;;7.30;6.60;;;;;;;15.89;100.00;98121.75;6216358;28;20219;-51
2023/08/13 05:32:09;;;;;;;6.80;6.20;;;;;;;15.99;100.00;98119.09;6230499;28;20235;-52
2023/08/13 05:35:12;;;;;;;6.33;5.73;;;;;;;16.08;100.00;98116.69;6211693;28;20232;-53
2023/08/13 05:38:15;;;;;;;6.50;6.00;;;;;;;16.14;100.00;98129.06;6212533;28;20224;-54
2023/08/13 05:41:18;;;;;;;6.50;6.00;;;;;;;16.17;100.00;98120.47;6220814;28;20608;-52
2023/08/13 05:44:20;;;;;;;6.97;6.27;;;;;;;16.23;100.00;98115.91;6213741;28;20246;-53
2023/08/13 05:47:23;;;;;;;6.60;6.10;;;;;;;16.27;100.00;98125.06;6228376;28;20314;-50
2023/08/13 05:50:25;;;;;;;5.80;5.30;;;;;;;16.28;100.00;98118.59;6211754;28;20245;-53
2023/08/13 05:53:27;;;;;;;6.50;5.90;;;;;;;16.37;100.00;98130.44;6229136;28;20228;-52
2023/08/13 05:56:30;;;;;;;8.03;7.23;;;;;;;16.40;100.00;98123.69;6231664;28;20370;-51
2023/08/13 05:59:33;;;;;;;7.97;7.13;;;;;;;16.57;100.00;98135.00;6234123;28;20236;-51
2023/08/13 06:02:36;;;;;;;9.87;6.60;;;;;;;16.73;100.00;98133.16;6230390;28;20851;-52
2023/08/13 06:05:39;;;;;;;7.90;7.20;;;;;;;16.89;100.00;98129.34;6225687;28;20255;-52
2023/08/13 06:08:41;;;;;;;7.40;6.90;;;;;;;16.98;100.00;98137.69;6228670;28;20231;-54
2023/08/13 06:11:43;;;;;;;7.30;6.53;;;;;;;17.09;100.00;98139.28;6229990;28;20228;-52
2023/08/13 06:14:46;;;;;;;8.00;7.10;;;;;;;17.21;100.00;98139.81;6235648;28;20756;-51
2023/08/13 06:17:49;;;;;;;7.20;6.60;;;;;;;17.37;100.00;98139.75;6230817;28;20321;-54
2023/08/13 06:20:51;;;;;;;7.53;6.90;;;;;;;17.55;100.00;98141.84;6230413;28;20257;-52
2023/08/13 06:23:53;;;;;;;13.83;12.53;;;;;;;17.69;100.00;98145.56;6227738;28;20228;-53
2023/08/13 06:26:55;;;;;;;10.63;9.63;;;;;;;17.90;100.00;98143.59;6228888;28;20228;-54
2023/08/13 06:29:57;;;;;;;13.60;12.30;;;;;;;18.17;100.00;98145.06;6231041;28;20736;-54
2023/08/13 06:33:11;;;;;;;12.37;11.27;;;;;;;18.38;100.00;98143.06;6226474;28;20228;-53
2023/08/13 06:36:14;;;;;;;11.83;9.17;;;;;;;18.64;100.00;98133.66;6229026;28;20220;-51
2023/08/13 06:39:16;;;;;;;14.13;12.10;;;;;;;18.87;100.00;98136.75;6229951;28;20807;-52
2023/08/13 06:42:18;;;;;;;16.13;14.63;;;;;;;19.07;100.00;98133.84;6229775;28;20212;-53
2023/08/13 06:45:26;;;;;;;6.67;6.17;;;;;;;19.23;100.00;98137.19;6220170;28;20697;-53
2023/08/13 06:48:33;;;;;;;6.53;5.93;;;;;;;19.40;100.00;98139.41;6229117;28;20590;-53
2023/08/13 06:51:35;;;;;;;7.40;6.70;;;;;;;19.50;100.00;98147.41;6229210;28;20224;-53
2023/08/13 06:54:37;;;;;;;8.40;7.53;;;;;;;19.61;100.00;98148.94;6229843;28;20373;-54
2023/08/13 06:57:39;;;;;;;9.73;7.63;;;;;;;19.73;100.00;98164.75;6225882;28;20228;-53
2023/08/13 07:00:42;;;;;;;11.80;9.73;;;;;;;19.83;100.00;98162.72;6228362;28;20285;-50
2023/08/13 07:03:46;;;;;;;8.40;7.50;;;;;;;19.91;100.00;98158.56;6228907;28;20232;-52
2023/08/13 07:06:48;;;;;;;5.80;5.30;;;;;;;19.99;100.00;98170.63;6229454;28;20369;-53
2023/08/13 07:09:51;;;;;;;5.23;4.40;;;;;;;20.14;100.00;98164.19;6228603;28;20600;-53
2023/08/13 07:12:54;;;;;;;6.03;5.43;;;;;;;20.25;100.00;98171.91;6225289;28;20232;-54
2023/08/13 07:15:57;;;;;;;5.10;4.70;;;;;;;20.37;100.00;98171.44;6229353;28;20239;-52
2023/08/13 07:18:59;;;;;;;5.57;4.10;;;;;;;20.52;100.00;98170.44;6227736;28;20242;-53
2023/08/13 07:22:01;;;;;;;7.67;4.27;;;;;;;20.66;100.00;98165.09;6228755;28;20235;-54
2023/08/13 07:25:05;;;;;;;6.00;3.93;;;;;;;20.78;100.00;98176.25;6211467;28;20347;-54
2023/08/13 07:28:07;;;;;;;4.07;3.67;;;;;;;21.30;90.82;98166.13;6225145;28;20242;-55
2023/08/13 07:31:10;;;;;;;4.47;3.67;;;;;;;22.01;85.06;98170.16;6228628;28;20257;-54
2023/08/13 07:34:12;;;;;;;4.67;3.57;;;;;;;22.12;87.16;98168.88;6210053;28;20274;-52
2023/08/13 07:37:14;;;;;;;3.43;2.87;;;;;;;22.17;82.89;98176.09;6229248;28;20235;-53
2023/08/13 07:40:16;;;;;;;3.77;3.33;;;;;;;22.67;78.30;98178.75;6229582;28;20289;-55
2023/08/13 07:43:19;;;;;;;3.10;2.80;;;;;;;22.74;82.81;98172.88;6195016;28;20249;-52
2023/08/13 07:46:21;;;;;;;3.10;2.80;;;;;;;22.57;83.21;98170.84;6226492;28;20239;-55
2023/08/13 07:49:25;;;;;;;3.37;3.07;;;;;;;22.55;84.78;98170.34;6229023;28;20235;-55
2023/08/13 07:52:27;;;;;;;3.93;3.17;;;;;;;22.51;85.35;98170.16;6228653;28;20239;-54
2023/08/13 07:55:29;;;;;;;3.43;3.10;;;;;;;22.55;85.11;98171.13;6224408;28;20373;-51
2023/08/13 07:58:34;;;;;;;3.97;3.20;;;;;;;22.64;85.52;98168.50;6223722;28;20281;-53
2023/08/13 08:01:36;;;;;;;4.93;3.50;;;;;;;22.68;85.73;98174.91;6230379;28;20234;-54
2023/08/13 08:04:39;;;;;;;3.00;2.80;;;;;;;22.74;86.27;98168.25;6213307;28;20266;-54
2023/08/13 08:07:41;;;;;;;4.40;3.17;;;;;;;22.85;86.39;98168.78;6228507;28;20318;-53
2023/08/13 08:10:43;;;;;;;4.90;3.20;;;;;;;23.34;73.03;98175.97;6233579;28;20242;-53
2023/08/13 08:13:46;;;;;;;3.00;2.70;;;;;;;23.79;70.37;98172.31;6228984;28;20236;-52
2023/08/13 08:16:57;;;;;;;4.13;3.00;;;;;;;23.91;68.30;98178.75;6232297;28;20898;-53
2023/08/13 08:20:00;;;;;;;2.40;2.20;;;;;;;24.04;70.11;98179.75;6233033;28;20305;-54
2023/08/13 08:23:02;;;;;;;3.22;2.42;;;;;;;24.00;70.21;98180.72;6215813;28;20231;-52
2023/08/13 08:26:05;;;;;;;2.40;2.20;;;;;;;23.99;69.21;98179.06;6233010;28;20314;-54
2023/08/13 08:29:10;;;;;;;2.72;2.53;;;;;;;24.27;67.67;98174.97;6226885;28;20232;-54
2023/08/13 08:32:12;;;;;;;3.10;2.70;;;;;;;24.56;62.08;98179.81;6232176;28;20224;-53
2023/08/13 08:35:15;;;;;;;3.28;2.97;;;;;;;24.67;62.21;98178.34;6233454;28;20245;-53
2023/08/13 08:38:17;;;;;;;3.08;2.75;;;;;;;24.66;63.97;98181.41;6232167;28;20242;-53
2023/08/13 08:41:21;;;;;;;2.97;2.72;;;;;;;24.55;66.62;98171.97;6229697;28;20314;-52
2023/08/13 08:44:24;;;;;;;3.13;2.55;;;;;;;24.49;68.22;98174.06;6232211;28;20293;-56
2023/08/13 08:47:27;;;;;;;4.70;3.15;;;;;;;24.50;65.45;98163.97;6232683;28;20702;-54
2023/08/13 08:50:30;;;;;;;3.40;2.80;;;;;;;24.50;65.79;98140.25;6232632;28;20232;-54
2023/08/13 08:53:34;;;;;;;4.00;2.85;;;;;;;24.77;65.29;98165.53;6233104;28;20377;-53
2023/08/13 08:56:37;;;;;;;5.38;2.90;;;;;;;24.79;65.89;98168.75;6232778;28;20318;-52
2023/08/13 08:59:39;;;;;;;3.20;2.53;;;;;;;24.85;63.11;98159.28;6231760;28;20377;-52
2023/08/13 09:02:43;;;;;;;2.83;2.63;;;;;;;24.93;65.25;98158.47;6232863;28;20256;-53
2023/08/13 09:05:45;;;;;;;2.95;2.65;;;;;;;24.88;66.47;98161.34;6214924;28;20240;-52
2023/08/13 09:08:48;;;;;;;2.97;2.50;;;;;;;24.98;63.24;98154.78;6231495;28;20238;-55
2023/08/13 09:11:51;;;;;;;7.95;4.60;;;;;;;25.04;65.00;98156.19;6227932;28;20240;-57
2023/08/13 09:14:54;;;;;;;5.13;4.35;;;;;;;25.08;64.30;98157.19;6231659;28;20341;-50
2023/08/13 09:17:59;;;;;;;3.97;3.63;;;;;;;25.09;66.17;98153.31;6232184;28;20231;-52
2023/08/13 09:21:03;;;;;;;5.78;3.47;;;;;;;25.06;67.82;98157.44;6214705;28;20228;-48
2023/08/13 09:24:08;;;;;;;4.60;3.22;;;;;;;25.03;69.33;98155.38;6227682;28;20373;-52
2023/08/13 09:27:10;;;;;;;4.35;3.55;;;;;;;24.99;71.17;98156.34;6229333;28;20220;-54
2023/08/13 09:30:21;;;;;;;5.40;4.10;;;;;;;25.12;67.22;98156.19;6231468;28;20223;-51
2023/08/13 09:33:23;;;;;;;4.32;3.92;;;;;;;25.16;69.51;98148.16;6229193;28;20219;-50
2023/08/13 09:36:27;;;;;;;4.10;3.80;;;;;;;25.15;68.98;98146.56;6231454;28;20220;-52
2023/08/13 09:39:31;;;;;;;5.95;4.35;;;;;;;25.25;64.73;98139.94;6235300;28;20235;-49
2023/08/13 09:42:33;;;;;;;5.10;4.30;;;;;;;25.32;66.57;98138.31;6230539;28;20223;-53
2023/08/13 09:45:39;;;;;;;4.30;4.00;;;;;;;25.33;68.24;98139.91;6231685;28;20223;-53
2023/08/13 09:48:42;;;;;;;4.85;4.35;;;;;;;25.46;66.53;98143.53;6226065;28;20227;-54
2023/08/13 09:51:48;;;;;;;4.32;3.92;;;;;;;25.60;64.39;98149.56;6218460;28;20235;-55
2023/08/13 09:55:00;;;;;;;3.70;3.40;;;;;;;25.66;63.84;98142.00;6230213;28;20235;-54
2023/08/13 09:58:04;;;;;;;4.95;4.38;;;;;;;25.70;65.93;98148.41;6230112;28;20220;-53
2023/08/13 10:01:07;;;;;;;4.18;3.88;;;;;;;25.73;67.33;98140.34;6230256;28;20231;-55
2023/08/13 10:04:11;;;;;;;4.63;4.22;;;;;;;25.71;68.45;98147.25;6229490;28;20234;-55
2023/08/13 10:07:14;;;;;;;5.05;4.55;;;;;;;25.73;64.35;98142.28;6229012;28;20243;-53
2023/08/13 10:10:17;;;;;;;5.38;4.88;;;;;;;25.88;64.31;98147.22;6230307;28;20232;-52
2023/08/13 10:13:20;;;;;;;5.00;4.38;;;;;;;25.95;64.09;98147.47;6228619;28;20232;-53
2023/08/13 10:16:23;;;;;;;4.78;4.38;;;;;;;26.01;64.28;98139.09;6230860;28;20330;-51
2023/08/13 10:19:29;;;;;;;5.40;4.90;;;;;;;26.06;62.85;98150.63;6212169;28;20238;-51
2023/08/13 10:22:39;;;;;;;5.45;4.88;;;;;;;26.17;62.26;98137.38;6230424;28;20275;-52
2023/08/13 10:25:44;;;;;;;5.07;4.68;;;;;;;26.29;61.86;98150.28;6228364;28;20775;-53
2023/08/13 10:28:53;;;;;;;5.18;4.72;;;;;;;26.35;60.96;98152.47;6228860;28;20234;-53
2023/08/13 10:31:59;;;;;;;5.38;4.93;;;;;;;26.37;61.69;98147.50;6229089;28;20234;-52
2023/08/13 10:35:20;;;;;;;4.93;4.53;;;;;;;26.35;61.96;98143.50;6225600;28;20325;-52
2023/08/13 10:38:33;;;;;;;5.97;4.50;;;;;;;26.42;63.32;98143.75;6225968;28;20236;-53
2023/08/13 10:41:36;;;;;;;5.03;4.63;;;;;;;26.44;63.56;98147.78;6230182;28;20595;-53
2023/08/13 10:44:41;;;;;;;5.70;5.07;;;;;;;26.46;61.48;98153.72;6229575;28;20240;-53
2023/08/13 10:47:57;;;;;;;5.40;5.00;;;;;;;26.58;61.00;98152.97;6234856;28;20607;-54
2023/08/13 10:51:00;;;;;;;5.82;4.85;;;;;;;26.64;60.95;98140.69;6227827;28;20303;-53
2023/08/13 10:54:02;;;;;;;5.57;5.18;;;;;;;26.71;60.62;98143.69;6230971;28;20867;-51
2023/08/13 10:57:05;;;;;;;5.43;4.90;;;;;;;26.74;61.47;98153.94;6228733;28;20243;-54
2023/08/13 11:00:13;;;;;;;5.93;5.43;;;;;;;26.75;60.36;98143.81;6229409;28;20215;-55
2023/08/13 11:03:20;;;;;;;5.38;4.88;;;;;;;26.78;60.26;98142.34;6229146;28;20212;-55
2023/08/13 11:06:25;;;;;;;5.00;4.43;;;;;;;26.88;60.56;98137.25;6230690;28;20548;-53
2023/08/13 11:09:29;;;;;;;5.38;4.93;;;;;;;27.04;60.07;98140.13;6228653;28;20222;-54
2023/08/13 11:12:32;;;;;;;5.00;4.60;;;;;;;27.06;59.70;98137.88;6225914;28;20232;-54
2023/08/13 11:15:34;;;;;;;5.22;4.80;;;;;;;27.00;60.08;98133.75;6228411;28;20269;-54
2023/08/13 11:18:37;;;;;;;5.20;4.80;;;;;;;27.11;59.56;98134.16;6233484;28;20711;-54
2023/08/13 11:21:39;;;;;;;4.55;4.15;;;;;;;27.14;59.80;98133.44;6205551;28;20227;-52
2023/08/13 11:24:44;;;;;;;5.72;4.43;;;;;;;27.21;59.29;98123.56;6228279;28;20235;-51
2023/08/13 11:27:47;;;;;;;6.20;4.60;;;;;;;27.38;59.68;98129.94;6227479;28;20366;-52
2023/08/13 11:30:52;;;;;;;4.82;4.43;;;;;;;27.37;59.10;98129.16;6223733;28;20294;-52
2023/08/13 11:33:56;;;;;;;4.95;4.45;;;;;;;27.50;58.52;98125.28;6229599;28;20289;-54
2023/08/13 11:36:59;;;;;;;4.95;4.55;;;;;;;27.47;57.49;98133.38;6227265;28;20321;-53
2023/08/13 11:40:02;;;;;;;4.75;4.35;;;;;;;27.32;56.99;98109.44;6226777;28;20327;-53
2023/08/13 11:43:09;;;;;;;5.03;3.97;;;;;;;27.47;57.50;98125.97;6210409;28;20239;-53
2023/08/13 11:46:12;;;;;;;4.38;3.97;;;;;;;27.61;56.07;98125.63;6225954;28;20233;-49
2023/08/13 11:49:16;;;;;;;3.90;3.60;;;;;;;27.50;57.69;98108.06;6228555;28;20220;-54
2023/08/13 11:52:19;;;;;;;5.20;3.95;;;;;;;27.75;55.25;98117.09;6228484;28;20243;-54
2023/08/13 11:55:24;;;;;;;5.00;3.50;;;;;;;27.72;55.87;98117.75;6227235;28;20236;-53
2023/08/13 11:58:26;;;;;;;4.43;3.38;;;;;;;27.72;55.68;98109.56;6228827;28;20243;-55
2023/08/13 12:01:28;;;;;;;4.00;3.70;;;;;;;27.74;55.57;98115.50;6228878;28;20236;-53
2023/08/13 12:04:32;;;;;;;3.85;3.30;;;;;;;27.80;56.62;98105.91;6211788;28;20309;-55
2023/08/13 12:07:40;;;;;;;5.53;3.70;;;;;;;27.94;52.92;98109.06;6226595;28;20317;-55
2023/08/13 12:10:42;;;;;;;8.80;3.38;;;;;;;27.83;53.88;98098.91;6228375;28;20235;-53
2023/08/13 12:13:45;;;;;;;3.90;3.50;;;;;;;27.70;54.27;98100.88;6228395;28;20373;-53
2023/08/13 12:16:48;;;;;;;4.03;3.42;;;;;;;27.64;55.34;98108.53;6210871;28;20323;-52
2023/08/13 12:19:50;;;;;;;4.72;3.10;;;;;;;27.67;55.21;98098.81;6228959;28;20231;-54
2023/08/13 12:22:53;;;;;;;3.20;2.90;;;;;;;27.79;56.02;98092.56;6227972;28;20642;-53
2023/08/13 12:25:56;;;;;;;3.42;3.13;;;;;;;27.83;54.05;98085.22;6227330;28;20270;-54
2023/08/13 12:28:59;;;;;;;3.80;3.10;;;;;;;27.80;50.97;98084.00;6205116;28;20232;-51
2023/08/13 12:32:02;;;;;;;3.25;2.70;;;;;;;27.89;51.45;98083.88;6225592;28;20374;-52
2023/08/13 12:35:08;;;;;;;3.28;3.00;;;;;;;27.82;54.51;98078.16;6228895;28;20289;-51
2023/08/13 12:38:11;;;;;;;4.53;3.42;;;;;;;27.81;56.28;98077.38;6210619;28;20227;-51
2023/08/13 12:41:13;;;;;;;3.92;3.28;;;;;;;27.73;55.81;98078.28;6224072;28;20228;-52
2023/08/13 12:44:19;;;;;;;3.45;3.15;;;;;;;27.66;57.31;98075.31;6226099;28;20239;-53
2023/08/13 12:47:22;;;;;;;3.35;3.08;;;;;;;27.66;56.84;98073.38;6228608;28;20281;-54
2023/08/13 12:50:24;;;;;;;3.55;3.25;;;;;;;27.66;57.06;98073.38;6232493;28;20231;-52
2023/08/13 12:53:26;;;;;;;4.13;3.25;;;;;;;27.79;53.74;98070.66;6231424;28;20239;-52
2023/08/13 12:56:29;;;;;;;3.83;3.47;;;;;;;27.73;53.36;98073.63;6231838;28;20240;-54
2023/08/13 12:59:31;;;;;;;3.72;3.30;;;;;;;27.81;54.34;98073.84;6232319;28;20232;-51
2023/08/13 13:02:34;;;;;;;3.05;2.83;;;;;;;27.73;54.18;98078.28;6214009;28;20231;-53
2023/08/13 13:05:36;;;;;;;3.72;3.03;;;;;;;27.63;55.08;98067.78;6233949;28;20287;-53
2023/08/13 13:08:38;;;;;;;4.55;3.53;;;;;;;27.61;55.84;98061.88;6229069;28;20237;-53
2023/08/13 13:11:41;;;;;;;4.93;3.60;;;;;;;27.73;54.74;98065.44;6232408;28;20227;-54
2023/08/13 13:14:43;;;;;;;3.30;3.10;;;;;;;27.74;56.88;98064.28;6232168;28;20598;-53
2023/08/13 13:17:45;;;;;;;6.53;3.55;;;;;;;27.65;56.98;98071.78;6231687;28;20314;-52
2023/08/13 13:20:48;;;;;;;4.13;3.22;;;;;;;27.68;54.76;98067.53;6231854;28;20227;-52
2023/08/13 13:23:51;;;;;;;3.63;3.08;;;;;;;27.59;56.06;98064.16;6231068;28;20735;-54
2023/08/13 13:26:53;;;;;;;4.38;3.35;;;;;;;27.50;58.42;98065.06;6231425;28;20318;-54
2023/08/13 13:29:55;;;;;;;3.28;2.97;;;;;;;27.40;58.93;98057.34;6232535;28;20238;-53
2023/08/13 13:33:01;;;;;;;5.00;3.22;;;;;;;27.36;57.62;98047.41;6229295;28;20602;-52
2023/08/13 13:36:07;;;;;;;4.55;3.20;;;;;;;27.49;56.59;98051.75;6213803;28;20744;-54
2023/08/13 13:39:10;;;;;;;3.53;3.20;;;;;;;27.37;58.39;98043.53;6232163;28;20212;-51
2023/08/13 13:42:13;;;;;;;3.88;3.08;;;;;;;27.27;58.81;98042.84;6232771;28;20630;-52
2023/08/13 13:45:15;;;;;;;3.22;2.92;;;;;;;27.19;57.72;98035.56;6227605;28;20584;-53
2023/08/13 13:48:18;;;;;;;3.20;2.90;;;;;;;27.22;58.26;98042.28;6230763;28;20216;-54
2023/08/13 13:51:20;;;;;;;4.00;2.90;;;;;;;27.17;58.25;98037.03;6231404;28;20315;-53
2023/08/13 13:54:22;;;;;;;3.22;2.92;;;;;;;27.27;56.00;98025.63;6230566;28;20228;-50
2023/08/13 13:57:26;;;;;;;3.00;2.80;;;;;;;27.21;56.87;98038.75;6230928;28;20247;-52
2023/08/13 14:00:29;;;;;;;3.50;2.78;;;;;;;27.20;59.26;98028.16;6231384;28;20285;-52
2023/08/13 14:03:31;;;;;;;2.70;2.20;;;;;;;27.20;56.05;98023.50;6230240;28;20253;-50
2023/08/13 14:06:34;;;;;;;4.32;3.05;;;;;;;27.15;54.53;98031.13;6212583;28;20227;-53
2023/08/13 14:09:36;;;;;;;2.80;2.60;;;;;;;27.11;56.51;98025.53;6230648;28;20785;-53
2023/08/13 14:12:38;;;;;;;2.97;2.25;;;;;;;26.99;58.03;98018.09;6230362;28;20231;-55
2023/08/13 14:15:40;;;;;;;2.97;2.50;;;;;;;26.88;56.87;98016.94;6231432;28;20242;-53
2023/08/13 14:18:43;;;;;;;3.75;2.40;;;;;;;26.87;55.21;98015.34;6229764;28;20316;-54